sensor_id;sensor_type;location;lat;lon;timestamp;temperature;humidity
6520;DHT22;3293;51.690;5.982;2023-05-14T00:03:30;15.20;99.90
6520;DHT22;3293;51.690;5.982;2023-05-14T00:08:30;15.00;99.90
6520;DHT22;3293;51.690;5.982;2023-05-14T00:13:30;14.80;99.90
6520;DHT22;3293;51.690;5.982;2023-05-14T00:18:30;14.60;99.90
6520;DHT22;3293;51.690;5.982;2023-05-14T00:23:29;14.50;99.90
6520;DHT22;3293;51.690;5.982;2023-05-14T00:28:30;14.40;99.90
6520;DHT22;3293;51.690;5.982;2023-05-14T00:33:29;14.30;99.90
6520;DHT22;3293;51.690;5.982;2023-05-14T00:38:29;14.20;99.90
6520;DHT22;3293;51.690;5.982;2023-05-14T00:43:29;14.10;99.90
6520;DHT22;3293;51.690;5.982;2023-05-14T00:48:32;14.00;99.90
6520;DHT22;3293;51.690;5.982;2023-05-14T00:53:32;14.00;99.90
6520;DHT22;3293;51.690;5.982;2023-05-14T00:58:33;13.90;99.90
6520;DHT22;3293;51.690;5.982;2023-05-14T01:03:33;13.80;99.90
6520;DHT22;3293;51.690;5.982;2023-05-14T01:14:24;13.70;99.90
6520;DHT22;3293;51.690;5.982;2023-05-14T01:19:38;13.50;99.90
6520;DHT22;3293;51.690;5.982;2023-05-14T01:24:39;13.60;99.90
6520;DHT22;3293;51.690;5.982;2023-05-14T01:29:44;13.50;99.90
6520;DHT22;3293;51.690;5.982;2023-05-14T01:34:48;13.50;99.90
6520;DHT22;3293;51.690;5.982;2023-05-14T01:39:50;13.40;99.90
6520;DHT22;3293;51.690;5.982;2023-05-14T01:44:51;13.40;99.90
6520;DHT22;3293;51.690;5.982;2023-05-14T01:49:51;13.30;99.90
6520;DHT22;3293;51.690;5.982;2023-05-14T01:54:50;13.10;99.90
6520;DHT22;3293;51.690;5.982;2023-05-14T01:59:50;13.00;99.90
6520;DHT22;3293;51.690;5.982;2023-05-14T02:04:50;13.00;99.90
6520;DHT22;3293;51.690;5.982;2023-05-14T02:09:50;13.00;99.90
6520;DHT22;3293;51.690;5.982;2023-05-14T02:14:50;13.00;99.90
6520;DHT22;3293;51.690;5.982;2023-05-14T02:19:50;13.00;99.90
6520;DHT22;3293;51.690;5.982;2023-05-14T02:24:50;13.00;99.90
6520;DHT22;3293;51.690;5.982;2023-05-14T02:29:51;13.00;99.90
6520;DHT22;3293;51.690;5.982;2023-05-14T02:34:51;12.80;99.90
6520;DHT22;3293;51.690;5.982;2023-05-14T02:39:51;12.70;99.90
6520;DHT22;3293;51.690;5.982;2023-05-14T02:44:52;12.70;99.90
6520;DHT22;3293;51.690;5.982;2023-05-14T02:49:51;12.60;99.90
6520;DHT22;3293;51.690;5.982;2023-05-14T02:54:51;12.40;99.90
6520;DHT22;3293;51.690;5.982;2023-05-14T02:59:51;12.40;99.90
6520;DHT22;3293;51.690;5.982;2023-05-14T03:04:51;12.30;99.90
6520;DHT22;3293;51.690;5.982;2023-05-14T03:09:51;12.10;99.90
6520;DHT22;3293;51.690;5.982;2023-05-14T03:14:51;12.00;99.90
6520;DHT22;3293;51.690;5.982;2023-05-14T03:19:51;11.90;99.90
6520;DHT22;3293;51.690;5.982;2023-05-14T03:24:51;11.70;99.90
6520;DHT22;3293;51.690;5.982;2023-05-14T03:29:50;11.70;99.90
6520;DHT22;3293;51.690;5.982;2023-05-14T03:34:50;11.60;99.90
6520;DHT22;3293;51.690;5.982;2023-05-14T03:39:50;11.60;99.90
6520;DHT22;3293;51.690;5.982;2023-05-14T03:44:50;11.50;99.90
6520;DHT22;3293;51.690;5.982;2023-05-14T03:49:50;11.50;99.90
6520;DHT22;3293;51.690;5.982;2023-05-14T03:54:50;11.40;99.90
6520;DHT22;3293;51.690;5.982;2023-05-14T03:59:50;11.30;99.90
6520;DHT22;3293;51.690;5.982;2023-05-14T04:04:50;11.30;99.90
6520;DHT22;3293;51.690;5.982;2023-05-14T04:09:50;11.30;99.90
6520;DHT22;3293;51.690;5.982;2023-05-14T04:14:50;11.30;99.90
6520;DHT22;3293;51.690;5.982;2023-05-14T04:19:50;11.30;99.90
6520;DHT22;3293;51.690;5.982;2023-05-14T04:24:52;11.40;99.90
6520;DHT22;3293;51.690;5.982;2023-05-14T04:29:53;11.50;99.90
6520;DHT22;3293;51.690;5.982;2023-05-14T04:34:53;11.70;99.90
6520;DHT22;3293;51.690;5.982;2023-05-14T04:39:54;11.90;99.90
6520;DHT22;3293;51.690;5.982;2023-05-14T04:44:55;12.50;99.90
6520;DHT22;3293;51.690;5.982;2023-05-14T04:49:55;13.30;99.90
6520;DHT22;3293;51.690;5.982;2023-05-14T04:54:56;13.90;99.90
6520;DHT22;3293;51.690;5.982;2023-05-14T04:59:56;15.00;99.90
6520;DHT22;3293;51.690;5.982;2023-05-14T05:04:56;15.60;99.90
6520;DHT22;3293;51.690;5.982;2023-05-14T05:09:56;16.50;99.90
6520;DHT22;3293;51.690;5.982;2023-05-14T05:14:57;18.00;99.90
6520;DHT22;3293;51.690;5.982;2023-05-14T05:19:57;19.00;93.30
6520;DHT22;3293;51.690;5.982;2023-05-14T05:24:57;19.40;90.60
6520;DHT22;3293;51.690;5.982;2023-05-14T05:30:02;19.90;87.10
6520;DHT22;3293;51.690;5.982;2023-05-14T05:35:03;20.00;83.20
6520;DHT22;3293;51.690;5.982;2023-05-14T05:40:03;19.40;84.50
6520;DHT22;3293;51.690;5.982;2023-05-14T05:45:05;19.40;89.30
6520;DHT22;3293;51.690;5.982;2023-05-14T05:50:05;20.70;77.40
6520;DHT22;3293;51.690;5.982;2023-05-14T05:55:06;21.70;69.60
6520;DHT22;3293;51.690;5.982;2023-05-14T06:00:07;22.60;59.50
6520;DHT22;3293;51.690;5.982;2023-05-14T06:05:12;23.30;56.70
6520;DHT22;3293;51.690;5.982;2023-05-14T06:10:12;23.90;51.00
6520;DHT22;3293;51.690;5.982;2023-05-14T06:15:13;23.90;48.70
6520;DHT22;3293;51.690;5.982;2023-05-14T06:20:14;24.40;48.90
6520;DHT22;3293;51.690;5.982;2023-05-14T06:25:14;24.10;49.50
6520;DHT22;3293;51.690;5.982;2023-05-14T06:30:14;23.90;48.70
6520;DHT22;3293;51.690;5.982;2023-05-14T06:35:14;23.90;46.10
6520;DHT22;3293;51.690;5.982;2023-05-14T06:40:14;24.40;46.50
6520;DHT22;3293;51.690;5.982;2023-05-14T06:45:14;25.00;45.40
6520;DHT22;3293;51.690;5.982;2023-05-14T06:50:14;25.50;43.50
6520;DHT22;3293;51.690;5.982;2023-05-14T06:55:14;25.90;41.30
6520;DHT22;3293;51.690;5.982;2023-05-14T07:00:14;26.60;40.40
6520;DHT22;3293;51.690;5.982;2023-05-14T07:05:14;27.20;38.00
6520;DHT22;3293;51.690;5.982;2023-05-14T07:10:14;27.10;37.20
6520;DHT22;3293;51.690;5.982;2023-05-14T07:15:14;27.10;35.70
6520;DHT22;3293;51.690;5.982;2023-05-14T07:20:15;27.20;37.00
6520;DHT22;3293;51.690;5.982;2023-05-14T07:25:15;27.10;37.50
6520;DHT22;3293;51.690;5.982;2023-05-14T07:30:15;28.20;35.20
6520;DHT22;3293;51.690;5.982;2023-05-14T07:35:15;28.40;34.10
6520;DHT22;3293;51.690;5.982;2023-05-14T07:40:15;28.90;31.90
6520;DHT22;3293;51.690;5.982;2023-05-14T07:45:15;29.00;31.30
6520;DHT22;3293;51.690;5.982;2023-05-14T07:50:15;28.10;34.50
6520;DHT22;3293;51.690;5.982;2023-05-14T07:55:15;27.40;35.80
6520;DHT22;3293;51.690;5.982;2023-05-14T08:00:15;27.50;35.40
6520;DHT22;3293;51.690;5.982;2023-05-14T08:05:16;24.90;42.40
6520;DHT22;3293;51.690;5.982;2023-05-14T08:10:16;24.80;45.60
6520;DHT22;3293;51.690;5.982;2023-05-14T08:15:15;26.20;42.80
6520;DHT22;3293;51.690;5.982;2023-05-14T08:20:16;26.90;39.00
6520;DHT22;3293;51.690;5.982;2023-05-14T08:25:16;27.40;38.20
6520;DHT22;3293;51.690;5.982;2023-05-14T08:30:16;28.00;35.20
6520;DHT22;3293;51.690;5.982;2023-05-14T08:35:17;28.30;33.90
6520;DHT22;3293;51.690;5.982;2023-05-14T08:40:17;28.10;34.30
6520;DHT22;3293;51.690;5.982;2023-05-14T08:45:19;28.00;33.10
6520;DHT22;3293;51.690;5.982;2023-05-14T08:50:19;27.80;31.30
6520;DHT22;3293;51.690;5.982;2023-05-14T08:55:21;28.20;32.40
6520;DHT22;3293;51.690;5.982;2023-05-14T09:00:21;28.60;31.70
6520;DHT22;3293;51.690;5.982;2023-05-14T09:05:22;29.40;28.40
6520;DHT22;3293;51.690;5.982;2023-05-14T09:10:23;29.50;29.10
6520;DHT22;3293;51.690;5.982;2023-05-14T09:15:24;29.70;29.80
6520;DHT22;3293;51.690;5.982;2023-05-14T09:20:26;29.60;27.40
6520;DHT22;3293;51.690;5.982;2023-05-14T09:25:30;29.30;29.80
6520;DHT22;3293;51.690;5.982;2023-05-14T09:30:31;29.70;27.30
6520;DHT22;3293;51.690;5.982;2023-05-14T09:35:32;29.50;28.50
6520;DHT22;3293;51.690;5.982;2023-05-14T09:40:32;29.40;28.40
6520;DHT22;3293;51.690;5.982;2023-05-14T09:45:33;28.80;29.20
6520;DHT22;3293;51.690;5.982;2023-05-14T09:50:41;27.50;31.20
6520;DHT22;3293;51.690;5.982;2023-05-14T09:55:41;26.40;34.10
6520;DHT22;3293;51.690;5.982;2023-05-14T10:00:45;25.70;38.10
6520;DHT22;3293;51.690;5.982;2023-05-14T10:05:48;25.10;39.00
6520;DHT22;3293;51.690;5.982;2023-05-14T10:10:50;24.80;41.50
6520;DHT22;3293;51.690;5.982;2023-05-14T10:15:56;24.50;44.00
6520;DHT22;3293;51.690;5.982;2023-05-14T10:21:05;24.30;49.60
6520;DHT22;3293;51.690;5.982;2023-05-14T10:26:07;24.10;47.40
6520;DHT22;3293;51.690;5.982;2023-05-14T10:31:11;23.70;44.40
6520;DHT22;3293;51.690;5.982;2023-05-14T10:36:11;24.00;49.40
6520;DHT22;3293;51.690;5.982;2023-05-14T10:41:13;23.90;49.10
6520;DHT22;3293;51.690;5.982;2023-05-14T10:46:16;24.10;48.50
6520;DHT22;3293;51.690;5.982;2023-05-14T10:51:17;24.20;49.80
6520;DHT22;3293;51.690;5.982;2023-05-14T10:56:19;24.10;45.20
6520;DHT22;3293;51.690;5.982;2023-05-14T11:01:23;23.80;40.30
6520;DHT22;3293;51.690;5.982;2023-05-14T11:06:24;23.80;43.90
6520;DHT22;3293;51.690;5.982;2023-05-14T11:11:25;23.80;45.50
6520;DHT22;3293;51.690;5.982;2023-05-14T11:16:27;24.00;42.20
6520;DHT22;3293;51.690;5.982;2023-05-14T11:21:30;24.20;41.70
6520;DHT22;3293;51.690;5.982;2023-05-14T11:26:31;24.30;39.30
6520;DHT22;3293;51.690;5.982;2023-05-14T11:31:32;24.40;39.60
6520;DHT22;3293;51.690;5.982;2023-05-14T11:36:32;23.90;31.20
6520;DHT22;3293;51.690;5.982;2023-05-14T11:41:32;23.50;32.80
6520;DHT22;3293;51.690;5.982;2023-05-14T11:46:32;23.40;27.80
6520;DHT22;3293;51.690;5.982;2023-05-14T11:51:32;23.50;28.60
6520;DHT22;3293;51.690;5.982;2023-05-14T11:56:32;23.70;28.30
6520;DHT22;3293;51.690;5.982;2023-05-14T12:01:36;24.10;25.70
6520;DHT22;3293;51.690;5.982;2023-05-14T12:06:38;24.10;24.20
6520;DHT22;3293;51.690;5.982;2023-05-14T12:11:38;24.20;25.80
6520;DHT22;3293;51.690;5.982;2023-05-14T12:16:39;24.10;24.90
6520;DHT22;3293;51.690;5.982;2023-05-14T12:21:41;23.70;26.50
6520;DHT22;3293;51.690;5.982;2023-05-14T12:26:46;23.90;25.80
6520;DHT22;3293;51.690;5.982;2023-05-14T12:31:48;24.30;20.10
6520;DHT22;3293;51.690;5.982;2023-05-14T12:36:49;24.40;18.10
6520;DHT22;3293;51.690;5.982;2023-05-14T12:41:49;24.50;16.80
6520;DHT22;3293;51.690;5.982;2023-05-14T12:46:49;24.60;19.40
6520;DHT22;3293;51.690;5.982;2023-05-14T12:51:49;25.30;19.30
6520;DHT22;3293;51.690;5.982;2023-05-14T12:56:49;25.60;19.10
6520;DHT22;3293;51.690;5.982;2023-05-14T13:01:49;25.40;16.00
6520;DHT22;3293;51.690;5.982;2023-05-14T13:06:49;25.10;16.40
6520;DHT22;3293;51.690;5.982;2023-05-14T13:11:49;24.80;18.10
6520;DHT22;3293;51.690;5.982;2023-05-14T13:16:49;24.40;19.80
6520;DHT22;3293;51.690;5.982;2023-05-14T13:21:49;24.30;19.70
6520;DHT22;3293;51.690;5.982;2023-05-14T13:26:49;24.10;19.40
6520;DHT22;3293;51.690;5.982;2023-05-14T13:31:49;24.20;21.90
6520;DHT22;3293;51.690;5.982;2023-05-14T13:36:49;24.40;20.60
6520;DHT22;3293;51.690;5.982;2023-05-14T13:41:49;24.50;22.00
6520;DHT22;3293;51.690;5.982;2023-05-14T13:46:49;24.30;20.60
6520;DHT22;3293;51.690;5.982;2023-05-14T13:51:49;24.20;27.30
6520;DHT22;3293;51.690;5.982;2023-05-14T13:56:50;24.30;22.80
6520;DHT22;3293;51.690;5.982;2023-05-14T14:01:50;24.30;21.40
6520;DHT22;3293;51.690;5.982;2023-05-14T14:06:50;24.20;21.20
6520;DHT22;3293;51.690;5.982;2023-05-14T14:11:51;24.20;22.20
6520;DHT22;3293;51.690;5.982;2023-05-14T14:16:51;24.10;20.60
6520;DHT22;3293;51.690;5.982;2023-05-14T14:21:50;24.40;21.50
6520;DHT22;3293;51.690;5.982;2023-05-14T14:26:50;24.40;24.00
6520;DHT22;3293;51.690;5.982;2023-05-14T14:31:50;24.50;23.20
6520;DHT22;3293;51.690;5.982;2023-05-14T14:36:50;24.20;24.70
6520;DHT22;3293;51.690;5.982;2023-05-14T14:41:50;24.10;31.30
6520;DHT22;3293;51.690;5.982;2023-05-14T14:46:50;23.90;29.70
6520;DHT22;3293;51.690;5.982;2023-05-14T14:51:50;23.80;31.20
6520;DHT22;3293;51.690;5.982;2023-05-14T14:56:50;23.50;31.50
6520;DHT22;3293;51.690;5.982;2023-05-14T15:01:51;23.50;32.70
6520;DHT22;3293;51.690;5.982;2023-05-14T15:06:51;23.70;31.10
6520;DHT22;3293;51.690;5.982;2023-05-14T15:11:51;23.70;32.80
6520;DHT22;3293;51.690;5.982;2023-05-14T15:16:51;23.60;30.90
6520;DHT22;3293;51.690;5.982;2023-05-14T15:21:51;23.40;32.10
6520;DHT22;3293;51.690;5.982;2023-05-14T15:26:51;23.50;33.80
6520;DHT22;3293;51.690;5.982;2023-05-14T15:31:51;23.30;35.30
6520;DHT22;3293;51.690;5.982;2023-05-14T15:36:51;23.10;33.50
6520;DHT22;3293;51.690;5.982;2023-05-14T15:41:51;23.10;32.40
6520;DHT22;3293;51.690;5.982;2023-05-14T15:46:51;22.90;31.30
6520;DHT22;3293;51.690;5.982;2023-05-14T15:51:51;23.00;32.40
6520;DHT22;3293;51.690;5.982;2023-05-14T15:56:52;23.00;32.70
6520;DHT22;3293;51.690;5.982;2023-05-14T16:01:52;23.00;32.60
6520;DHT22;3293;51.690;5.982;2023-05-14T16:06:52;23.00;33.20
6520;DHT22;3293;51.690;5.982;2023-05-14T16:11:52;22.90;34.80
6520;DHT22;3293;51.690;5.982;2023-05-14T16:16:53;22.80;37.10
6520;DHT22;3293;51.690;5.982;2023-05-14T16:21:53;22.60;37.90
6520;DHT22;3293;51.690;5.982;2023-05-14T16:26:53;22.40;40.60
6520;DHT22;3293;51.690;5.982;2023-05-14T16:31:53;22.20;40.90
6520;DHT22;3293;51.690;5.982;2023-05-14T16:36:53;22.10;40.60
6520;DHT22;3293;51.690;5.982;2023-05-14T16:41:53;22.10;42.50
6520;DHT22;3293;51.690;5.982;2023-05-14T16:46:53;21.90;40.50
6520;DHT22;3293;51.690;5.982;2023-05-14T16:51:52;21.80;40.70
6520;DHT22;3293;51.690;5.982;2023-05-14T16:56:52;21.70;45.30
6520;DHT22;3293;51.690;5.982;2023-05-14T17:01:52;21.60;45.00
6520;DHT22;3293;51.690;5.982;2023-05-14T17:06:53;21.50;46.70
6520;DHT22;3293;51.690;5.982;2023-05-14T17:11:53;21.40;47.50
6520;DHT22;3293;51.690;5.982;2023-05-14T17:16:53;21.30;47.00
6520;DHT22;3293;51.690;5.982;2023-05-14T17:21:54;21.30;47.70
6520;DHT22;3293;51.690;5.982;2023-05-14T17:26:54;21.30;50.20
6520;DHT22;3293;51.690;5.982;2023-05-14T17:31:54;21.20;50.20
6520;DHT22;3293;51.690;5.982;2023-05-14T17:36:54;21.10;51.40
6520;DHT22;3293;51.690;5.982;2023-05-14T17:41:54;21.00;55.10
6520;DHT22;3293;51.690;5.982;2023-05-14T17:46:54;20.80;55.20
6520;DHT22;3293;51.690;5.982;2023-05-14T17:51:54;20.70;54.50
6520;DHT22;3293;51.690;5.982;2023-05-14T17:56:55;20.60;53.30
6520;DHT22;3293;51.690;5.982;2023-05-14T18:01:55;20.50;54.10
6520;DHT22;3293;51.690;5.982;2023-05-14T18:06:55;20.40;58.00
6520;DHT22;3293;51.690;5.982;2023-05-14T18:11:55;20.20;60.00
6520;DHT22;3293;51.690;5.982;2023-05-14T18:16:55;20.00;58.50
6520;DHT22;3293;51.690;5.982;2023-05-14T18:21:55;19.90;56.10
6520;DHT22;3293;51.690;5.982;2023-05-14T18:26:55;19.80;54.20
6520;DHT22;3293;51.690;5.982;2023-05-14T18:31:55;19.60;51.20
6520;DHT22;3293;51.690;5.982;2023-05-14T18:36:56;19.50;47.20
6520;DHT22;3293;51.690;5.982;2023-05-14T18:41:57;19.40;48.10
6520;DHT22;3293;51.690;5.982;2023-05-14T18:46:58;19.20;49.30
6520;DHT22;3293;51.690;5.982;2023-05-14T18:51:59;19.10;65.70
6520;DHT22;3293;51.690;5.982;2023-05-14T18:57:02;19.10;81.20
6520;DHT22;3293;51.690;5.982;2023-05-14T19:02:02;18.90;91.20
6520;DHT22;3293;51.690;5.982;2023-05-14T19:07:03;18.80;94.90
6520;DHT22;3293;51.690;5.982;2023-05-14T19:12:03;18.70;97.60
6520;DHT22;3293;51.690;5.982;2023-05-14T19:17:03;18.50;99.80
6520;DHT22;3293;51.690;5.982;2023-05-14T19:22:04;18.30;99.90
6520;DHT22;3293;51.690;5.982;2023-05-14T19:27:05;18.20;99.90
6520;DHT22;3293;51.690;5.982;2023-05-14T19:32:05;18.20;99.90
6520;DHT22;3293;51.690;5.982;2023-05-14T19:37:05;18.00;99.90
6520;DHT22;3293;51.690;5.982;2023-05-14T19:42:05;17.90;99.90
6520;DHT22;3293;51.690;5.982;2023-05-14T19:47:06;17.80;99.90
6520;DHT22;3293;51.690;5.982;2023-05-14T19:52:06;17.60;99.90
6520;DHT22;3293;51.690;5.982;2023-05-14T19:57:06;17.40;99.90
6520;DHT22;3293;51.690;5.982;2023-05-14T20:02:06;17.20;99.90
6520;DHT22;3293;51.690;5.982;2023-05-14T20:07:07;17.10;99.90
6520;DHT22;3293;51.690;5.982;2023-05-14T20:12:07;17.00;99.90
6520;DHT22;3293;51.690;5.982;2023-05-14T20:17:07;16.80;99.90
6520;DHT22;3293;51.690;5.982;2023-05-14T20:22:07;16.70;99.90
6520;DHT22;3293;51.690;5.982;2023-05-14T20:27:07;16.60;99.90
6520;DHT22;3293;51.690;5.982;2023-05-14T20:32:07;16.40;99.90
6520;DHT22;3293;51.690;5.982;2023-05-14T20:37:07;16.30;99.90
6520;DHT22;3293;51.690;5.982;2023-05-14T20:42:07;16.20;99.90
6520;DHT22;3293;51.690;5.982;2023-05-14T20:47:07;16.20;99.90
6520;DHT22;3293;51.690;5.982;2023-05-14T20:52:07;16.10;99.90
6520;DHT22;3293;51.690;5.982;2023-05-14T20:57:10;15.90;99.90
6520;DHT22;3293;51.690;5.982;2023-05-14T21:02:11;15.80;99.90
6520;DHT22;3293;51.690;5.982;2023-05-14T21:07:11;15.70;99.90
6520;DHT22;3293;51.690;5.982;2023-05-14T21:12:11;15.60;99.90
6520;DHT22;3293;51.690;5.982;2023-05-14T21:17:11;15.50;99.90
6520;DHT22;3293;51.690;5.982;2023-05-14T21:22:11;15.40;99.90
6520;DHT22;3293;51.690;5.982;2023-05-14T21:27:11;15.30;99.90
6520;DHT22;3293;51.690;5.982;2023-05-14T21:32:11;15.20;99.90
6520;DHT22;3293;51.690;5.982;2023-05-14T21:37:11;15.10;99.90
6520;DHT22;3293;51.690;5.982;2023-05-14T21:42:11;15.00;99.90
6520;DHT22;3293;51.690;5.982;2023-05-14T21:47:11;15.00;99.90
6520;DHT22;3293;51.690;5.982;2023-05-14T21:52:11;14.90;99.90
6520;DHT22;3293;51.690;5.982;2023-05-14T21:57:11;14.80;99.90
6520;DHT22;3293;51.690;5.982;2023-05-14T22:02:11;14.60;99.90
6520;DHT22;3293;51.690;5.982;2023-05-14T22:07:11;14.50;99.90
6520;DHT22;3293;51.690;5.982;2023-05-14T22:12:11;14.50;99.90
6520;DHT22;3293;51.690;5.982;2023-05-14T22:17:11;14.40;99.90
6520;DHT22;3293;51.690;5.982;2023-05-14T22:22:11;14.30;99.90
6520;DHT22;3293;51.690;5.982;2023-05-14T22:27:11;14.10;99.90
6520;DHT22;3293;51.690;5.982;2023-05-14T22:32:11;14.10;99.90
6520;DHT22;3293;51.690;5.982;2023-05-14T22:37:11;14.00;99.90
6520;DHT22;3293;51.690;5.982;2023-05-14T22:42:11;13.90;99.90
6520;DHT22;3293;51.690;5.982;2023-05-14T22:47:11;13.80;99.90
6520;DHT22;3293;51.690;5.982;2023-05-14T22:52:11;13.70;99.90
6520;DHT22;3293;51.690;5.982;2023-05-14T22:57:11;13.60;99.90
6520;DHT22;3293;51.690;5.982;2023-05-14T23:02:11;13.50;99.90
6520;DHT22;3293;51.690;5.982;2023-05-14T23:07:11;13.50;99.90
6520;DHT22;3293;51.690;5.982;2023-05-14T23:12:11;13.40;99.90
6520;DHT22;3293;51.690;5.982;2023-05-14T23:17:11;13.40;99.90
6520;DHT22;3293;51.690;5.982;2023-05-14T23:22:11;13.30;99.90
6520;DHT22;3293;51.690;5.982;2023-05-14T23:27:11;13.30;99.90
6520;DHT22;3293;51.690;5.982;2023-05-14T23:32:11;13.10;99.90
6520;DHT22;3293;51.690;5.982;2023-05-14T23:37:11;13.10;99.90
6520;DHT22;3293;51.690;5.982;2023-05-14T23:42:12;13.00;99.90
6520;DHT22;3293;51.690;5.982;2023-05-14T23:47:12;12.90;99.90
6520;DHT22;3293;51.690;5.982;2023-05-14T23:52:12;12.90;99.90
6520;DHT22;3293;51.690;5.982;2023-05-14T23:57:12;12.90;99.90
